Time;durP1;ratioP1;P1;durP2;ratioP2;P2;SDS_P1;SDS_P2;PMS_P1;PMS_P2;Temp;Humidity;BMP_temperature;BMP_pressure;BME280_temperature;BME280_humidity;BME280_pressure;Samples;Min_cycle;Max_cycle;Signal;HPM_P1;HPM_P2
2023/01/03 00:01:22;;;;;;;0.20;0.20;;;4.90;99.90;;;;;;5081233;28;20431;-70
2023/01/03 00:03:49;;;;;;;0.20;0.20;;;5.00;99.90;;;;;;5073433;28;20794;-70
2023/01/03 00:06:17;;;;;;;0.10;0.10;;;5.00;99.90;;;;;;5085337;28;20460;-68
2023/01/03 00:08:44;;;;;;;0.28;0.28;;;5.00;99.90;;;;;;5088579;28;20969;-67
2023/01/03 00:11:13;;;;;;;0.10;0.10;;;5.10;99.90;;;;;;5085600;28;20473;-69
2023/01/03 00:13:40;;;;;;;0.10;0.10;;;5.00;99.90;;;;;;5086117;28;20506;-70
2023/01/03 00:16:33;;;;;;;0.20;0.20;;;4.90;99.90;;;;;;5078049;28;20522;-68
2023/01/03 00:19:05;;;;;;;0.20;0.20;;;4.90;99.90;;;;;;5081087;28;20426;-68
2023/01/03 00:21:33;;;;;;;0.10;0.10;;;4.80;99.90;;;;;;5086605;28;20425;-68
2023/01/03 00:24:00;;;;;;;0.10;0.10;;;4.90;99.90;;;;;;5074621;28;20517;-68
2023/01/03 00:26:27;;;;;;;0.00;0.00;;;4.80;99.90;;;;;;5092378;28;20481;-68
2023/01/03 00:28:54;;;;;;;0.20;0.20;;;4.80;99.90;;;;;;5088829;28;20879;-68
2023/01/03 00:31:21;;;;;;;0.00;0.00;;;4.70;99.90;;;;;;5089970;28;20792;-68
2023/01/03 00:33:51;;;;;;;0.00;0.00;;;4.70;99.90;;;;;;5080461;28;20431;-68
2023/01/03 00:36:18;;;;;;;0.10;0.10;;;4.60;99.90;;;;;;5082749;28;20955;-68
2023/01/03 00:38:45;;;;;;;0.00;0.00;;;4.40;99.90;;;;;;5095687;28;21052;-68
2023/01/03 00:41:17;;;;;;;0.40;0.30;;;4.40;99.90;;;;;;5087952;28;20425;-68
2023/01/03 00:43:46;;;;;;;0.10;0.10;;;4.30;99.90;;;;;;5097065;28;20844;-68
2023/01/03 00:46:15;;;;;;;0.10;0.10;;;4.20;99.90;;;;;;5093701;28;20436;-68
2023/01/03 00:48:42;;;;;;;0.00;0.00;;;4.30;99.90;;;;;;5082943;28;21125;-68
2023/01/03 00:51:10;;;;;;;0.10;0.10;;;4.20;99.90;;;;;;5095196;28;20433;-68
2023/01/03 00:53:39;;;;;;;0.10;0.10;;;4.20;99.90;;;;;;5089031;28;20438;-68
2023/01/03 00:56:09;;;;;;;0.10;0.10;;;4.20;99.90;;;;;;5095313;28;20446;-68
2023/01/03 00:58:37;;;;;;;0.10;0.10;;;4.20;99.90;;;;;;5079160;28;20429;-68
2023/01/03 01:01:07;;;;;;;0.10;0.10;;;4.20;99.90;;;;;;5087339;28;20509;-68
2023/01/03 01:03:44;;;;;;;0.10;0.10;;;4.20;99.90;;;;;;5077103;28;20436;-68
2023/01/03 01:06:18;;;;;;;0.13;0.13;;;4.30;99.90;;;;;;5082148;28;20437;-68
2023/01/03 01:08:46;;;;;;;0.10;0.10;;;4.30;99.90;;;;;;5080530;28;20517;-68
2023/01/03 01:11:14;;;;;;;0.10;0.10;;;4.30;99.90;;;;;;5082230;28;20453;-68
2023/01/03 01:13:45;;;;;;;0.30;0.30;;;4.30;99.90;;;;;;5085335;28;20814;-68
2023/01/03 01:16:31;;;;;;;0.20;0.20;;;4.30;99.90;;;;;;5081170;28;20463;-68
2023/01/03 01:18:59;;;;;;;0.20;0.20;;;4.20;99.90;;;;;;5086091;28;20441;-68
2023/01/03 01:21:28;;;;;;;0.40;0.40;;;4.20;99.90;;;;;;5086991;28;20421;-68
2023/01/03 01:23:57;;;;;;;0.10;0.10;;;4.30;99.90;;;;;;5084595;28;20512;-68
2023/01/03 01:26:27;;;;;;;0.40;0.10;;;4.20;99.90;;;;;;5089329;28;20457;-69
2023/01/03 01:28:54;;;;;;;0.40;0.40;;;4.20;99.90;;;;;;5082993;28;20440;-68
2023/01/03 01:31:23;;;;;;;0.10;0.10;;;4.20;99.90;;;;;;5100727;28;20795;-68
2023/01/03 01:33:52;;;;;;;0.10;0.10;;;4.10;99.90;;;;;;5073614;28;20446;-68
2023/01/03 01:36:28;;;;;;;0.10;0.10;;;4.20;99.90;;;;;;5082176;28;20427;-68
2023/01/03 01:39:00;;;;;;;0.22;0.20;;;4.30;99.90;;;;;;5083228;28;20453;-68
2023/01/03 01:44:43;;;;;;;0.10;0.10;;;4.50;99.90;;;;;;5087916;28;20466;-68
2023/01/03 01:47:50;;;;;;;0.17;0.17;;;4.70;99.90;;;;;;5078710;28;20509;-68
2023/01/03 01:50:39;;;;;;;0.10;0.10;;;4.80;99.90;;;;;;5092974;28;20519;-70
2023/01/03 01:53:23;;;;;;;0.30;0.30;;;4.90;99.90;;;;;;5084418;28;20487;-68
2023/01/03 01:55:59;;;;;;;0.10;0.10;;;5.00;99.90;;;;;;5088513;28;20428;-68
2023/01/03 01:58:30;;;;;;;0.38;0.38;;;5.10;99.90;;;;;;5092401;28;20426;-68
2023/01/03 02:00:57;;;;;;;0.10;0.10;;;5.10;99.90;;;;;;5088773;28;20435;-68
2023/01/03 02:03:25;;;;;;;0.10;0.10;;;5.10;99.90;;;;;;5085113;28;20985;-68
2023/01/03 02:05:55;;;;;;;0.10;0.10;;;5.20;99.90;;;;;;5076579;28;21156;-68
2023/01/03 02:08:22;;;;;;;0.80;0.23;;;5.20;99.90;;;;;;5078733;28;20512;-69
2023/01/03 02:11:12;;;;;;;0.20;0.20;;;5.20;99.90;;;;;;5086680;28;20499;-68
2023/01/03 02:14:02;;;;;;;0.27;0.23;;;5.20;99.90;;;;;;5086173;28;20421;-68
2023/01/03 02:16:50;;;;;;;0.25;0.25;;;5.20;99.90;;;;;;5076509;28;20448;-68
2023/01/03 02:19:49;;;;;;;0.28;0.28;;;5.20;99.90;;;;;;5091137;28;20436;-68
2023/01/03 02:22:44;;;;;;;0.60;0.60;;;5.00;99.90;;;;;;5078398;28;20458;-68
2023/01/03 02:25:48;;;;;;;0.30;0.28;;;4.70;99.90;;;;;;5094077;28;20974;-68
2023/01/03 02:28:37;;;;;;;0.20;0.20;;;4.60;99.90;;;;;;5075141;28;20429;-68
2023/01/03 02:31:28;;;;;;;0.20;0.20;;;4.40;99.90;;;;;;5083469;28;20854;-68
2023/01/03 02:34:01;;;;;;;0.30;0.30;;;4.30;99.90;;;;;;5068897;28;20803;-68
2023/01/03 02:36:31;;;;;;;0.20;0.20;;;4.10;99.90;;;;;;5076633;28;20825;-68
2023/01/03 02:39:22;;;;;;;0.20;0.20;;;4.00;99.90;;;;;;5089726;28;20453;-69
2023/01/03 02:45:42;;;;;;;0.10;0.10;;;3.70;99.90;;;;;;5075884;28;20427;-69
2023/01/03 02:48:13;;;;;;;0.20;0.20;;;3.60;99.90;;;;;;5074036;28;20438;-69
2023/01/03 02:50:53;;;;;;;0.22;0.22;;;3.80;99.90;;;;;;5076174;28;20936;-69
2023/01/03 02:53:32;;;;;;;0.17;0.17;;;3.80;99.90;;;;;;5081210;28;20463;-68
2023/01/03 02:56:08;;;;;;;0.40;0.40;;;3.80;99.90;;;;;;5087681;28;20431;-69
2023/01/03 02:58:38;;;;;;;0.20;0.20;;;3.90;99.90;;;;;;5076101;28;20521;-68
2023/01/03 03:01:07;;;;;;;1.25;0.65;;;4.00;99.90;;;;;;5079603;28;20421;-69
2023/01/03 03:03:39;;;;;;;0.13;0.10;;;4.00;99.90;;;;;;5076110;28;20438;-69
2023/01/03 03:06:20;;;;;;;0.30;0.30;;;4.00;99.90;;;;;;5084738;28;20514;-69
2023/01/03 03:08:48;;;;;;;0.30;0.25;;;4.10;99.90;;;;;;5077997;28;20441;-68
2023/01/03 03:14:06;;;;;;;0.20;0.20;;;4.00;99.90;;;;;;5092192;28;20479;-69
2023/01/03 03:16:46;;;;;;;0.17;0.17;;;4.00;99.90;;;;;;5086758;28;20465;-69
2023/01/03 03:25:32;;;;;;;0.20;0.20;;;3.70;99.90;;;;;;5090995;28;20458;-69
2023/01/03 03:30:59;;;;;;;0.10;0.10;;;3.60;99.90;;;;;;5091069;28;20574;-69
2023/01/03 03:33:29;;;;;;;0.50;0.50;;;3.40;99.90;;;;;;5092020;28;20442;-69
2023/01/03 03:36:05;;;;;;;0.30;0.30;;;3.30;99.90;;;;;;5087021;28;20795;-69
2023/01/03 03:38:43;;;;;;;0.45;0.45;;;3.20;99.90;;;;;;5079026;28;20485;-69
2023/01/03 03:47:47;;;;;;;0.22;0.22;;;3.20;99.90;;;;;;5096989;28;20498;-68
2023/01/03 03:50:21;;;;;;;0.40;0.40;;;3.20;99.90;;;;;;5088805;28;20430;-68
2023/01/03 03:52:51;;;;;;;0.30;0.30;;;3.30;99.90;;;;;;5084800;28;20489;-68
2023/01/03 03:55:24;;;;;;;0.60;0.20;;;3.30;99.90;;;;;;5089369;28;20474;-68
2023/01/03 03:57:57;;;;;;;0.30;0.30;;;3.30;99.90;;;;;;5093083;28;20517;-68
2023/01/03 04:00:28;;;;;;;0.20;0.20;;;3.20;99.90;;;;;;5080924;28;20455;-68
2023/01/03 04:02:57;;;;;;;0.13;0.13;;;3.10;99.90;;;;;;5092545;28;20483;-68
2023/01/03 04:05:26;;;;;;;0.40;0.40;;;3.10;99.90;;;;;;5086339;28;20423;-68
2023/01/03 04:07:53;;;;;;;0.30;0.30;;;3.00;99.90;;;;;;5080312;28;20493;-68
2023/01/03 04:10:22;;;;;;;0.25;0.25;;;2.90;99.90;;;;;;5079890;28;20437;-68
2023/01/03 04:12:50;;;;;;;0.30;0.30;;;2.80;99.90;;;;;;5082913;28;20432;-68
2023/01/03 04:15:17;;;;;;;0.85;0.85;;;2.80;99.90;;;;;;5092741;28;20439;-68
2023/01/03 04:17:44;;;;;;;0.20;0.20;;;2.70;99.90;;;;;;5089451;28;20437;-68
2023/01/03 04:20:12;;;;;;;0.38;0.38;;;2.70;99.90;;;;;;5097807;28;20462;-68
2023/01/03 04:22:39;;;;;;;0.17;0.17;;;2.80;99.90;;;;;;5094052;28;20808;-69
2023/01/03 04:25:07;;;;;;;0.22;0.22;;;2.80;99.90;;;;;;5077892;28;20434;-68
2023/01/03 04:27:33;;;;;;;0.40;0.40;;;2.90;99.90;;;;;;5083449;28;20427;-68
2023/01/03 04:30:00;;;;;;;0.30;0.30;;;2.90;99.90;;;;;;5088534;28;20436;-68
2023/01/03 04:32:27;;;;;;;0.20;0.20;;;2.90;99.90;;;;;;5086628;28;21123;-69
2023/01/03 04:34:54;;;;;;;0.43;0.43;;;2.90;99.90;;;;;;5087336;28;20498;-68
2023/01/03 04:37:21;;;;;;;0.38;0.38;;;2.90;99.90;;;;;;5086872;28;20443;-68
2023/01/03 04:39:48;;;;;;;0.52;0.38;;;2.90;99.90;;;;;;5083048;28;20479;-68
2023/01/03 04:45:00;;;;;;;0.65;0.65;;;2.80;99.90;;;;;;5085700;28;20451;-68
2023/01/03 04:47:27;;;;;;;0.85;0.82;;;2.80;99.90;;;;;;5082324;28;20432;-68
2023/01/03 04:49:54;;;;;;;0.68;0.68;;;2.80;99.90;;;;;;5088691;28;20429;-68
2023/01/03 04:52:24;;;;;;;1.30;0.57;;;2.80;99.90;;;;;;5083828;28;20620;-68
2023/01/03 04:54:50;;;;;;;0.50;0.50;;;2.80;99.90;;;;;;5090280;28;20436;-68
2023/01/03 04:57:17;;;;;;;0.60;0.60;;;2.80;99.90;;;;;;5077357;28;20428;-68
2023/01/03 04:59:44;;;;;;;0.40;0.40;;;2.80;99.90;;;;;;5082743;28;20517;-68
2023/01/03 05:02:11;;;;;;;0.47;0.47;;;2.70;99.90;;;;;;5083421;28;20513;-68
2023/01/03 05:04:38;;;;;;;0.52;0.52;;;2.60;99.90;;;;;;5075840;28;20506;-68
2023/01/03 05:07:05;;;;;;;0.20;0.20;;;2.50;99.90;;;;;;5084426;28;20445;-68
2023/01/03 05:09:35;;;;;;;0.80;0.80;;;2.30;99.90;;;;;;5073857;28;20463;-68
2023/01/03 05:12:02;;;;;;;0.30;0.30;;;2.20;99.90;;;;;;5079082;28;20461;-68
2023/01/03 05:14:36;;;;;;;0.50;0.50;;;2.20;99.90;;;;;;5085109;28;20430;-68
2023/01/03 05:17:02;;;;;;;0.50;0.50;;;2.10;99.90;;;;;;5080829;28;20470;-69
2023/01/03 05:19:30;;;;;;;0.30;0.20;;;2.10;99.90;;;;;;5079235;28;20844;-68
2023/01/03 05:27:28;;;;;;;0.20;0.20;;;2.10;99.90;;;;;;5074507;28;20427;-68
2023/01/03 05:29:58;;;;;;;0.20;0.20;;;2.00;99.90;;;;;;5088538;28;20485;-69
2023/01/03 05:32:28;;;;;;;0.10;0.10;;;2.00;99.90;;;;;;5092827;28;20982;-69
2023/01/03 05:34:54;;;;;;;0.30;0.30;;;2.10;99.90;;;;;;5079441;28;20422;-69
2023/01/03 05:37:23;;;;;;;0.30;0.30;;;2.20;99.90;;;;;;5084330;28;20428;-68
2023/01/03 05:39:50;;;;;;;0.30;0.30;;;2.00;99.90;;;;;;5082782;28;20425;-68
2023/01/03 05:42:19;;;;;;;0.22;0.22;;;1.90;99.90;;;;;;5074959;28;20530;-69
2023/01/03 05:44:46;;;;;;;0.30;0.30;;;1.90;99.90;;;;;;5081751;28;20444;-69
2023/01/03 05:47:15;;;;;;;0.30;0.30;;;1.90;99.90;;;;;;5082229;28;20434;-68
2023/01/03 05:49:42;;;;;;;0.57;0.57;;;1.90;99.90;;;;;;5076077;28;20420;-69
2023/01/03 05:52:08;;;;;;;0.20;0.20;;;2.00;99.90;;;;;;5075156;28;20428;-69
2023/01/03 05:54:35;;;;;;;0.30;0.30;;;2.10;99.90;;;;;;5081836;28;20442;-69
2023/01/03 05:57:02;;;;;;;0.30;0.30;;;2.20;99.90;;;;;;5085957;28;20505;-68
2023/01/03 05:59:37;;;;;;;0.50;0.50;;;2.20;99.90;;;;;;5089597;28;20422;-76
2023/01/03 06:02:23;;;;;;;1.30;0.45;;;2.20;99.90;;;;;;5084345;28;20414;-77
2023/01/03 06:04:50;;;;;;;0.32;0.32;;;2.30;99.90;;;;;;5086950;28;20429;-77
2023/01/03 06:07:17;;;;;;;0.30;0.30;;;2.30;99.90;;;;;;5085098;28;20430;-77
2023/01/03 06:09:44;;;;;;;0.43;0.43;;;2.20;99.90;;;;;;5084459;28;20426;-77
2023/01/03 06:12:11;;;;;;;0.38;0.38;;;2.20;99.90;;;;;;5085717;28;20822;-78
2023/01/03 06:14:38;;;;;;;0.60;0.50;;;2.20;99.90;;;;;;5075455;28;20425;-74
2023/01/03 06:19:50;;;;;;;0.60;0.60;;;2.10;99.90;;;;;;5101052;28;20528;-74
2023/01/03 06:22:16;;;;;;;0.50;0.50;;;2.00;99.90;;;;;;5086845;28;20419;-74
2023/01/03 06:24:43;;;;;;;0.20;0.20;;;1.90;99.90;;;;;;5101442;28;20438;-74
2023/01/03 06:27:10;;;;;;;0.50;0.50;;;1.70;99.90;;;;;;5086443;28;20461;-74
2023/01/03 06:29:37;;;;;;;0.47;0.47;;;1.50;99.90;;;;;;5085436;28;20877;-74
2023/01/03 06:32:03;;;;;;;0.60;0.60;;;1.30;99.90;;;;;;5075452;28;20436;-74
2023/01/03 06:34:35;;;;;;;0.52;0.30;;;1.20;99.90;;;;;;5082848;28;20427;-74
2023/01/03 06:37:02;;;;;;;0.40;0.40;;;1.20;99.90;;;;;;5074206;28;20423;-74
2023/01/03 06:39:29;;;;;;;0.55;0.38;;;1.20;99.90;;;;;;5091736;28;20464;-74
2023/01/03 06:41:55;;;;;;;0.52;0.52;;;1.20;99.90;;;;;;5089512;28;20425;-74
2023/01/03 06:44:22;;;;;;;0.98;0.30;;;1.40;99.90;;;;;;5088581;28;20422;-74
2023/01/03 06:55:12;;;;;;;0.30;0.30;;;1.30;99.90;;;;;;5082099;28;20845;-74
2023/01/03 06:57:39;;;;;;;0.40;0.40;;;1.20;99.90;;;;;;5072970;28;20903;-74
2023/01/03 07:00:06;;;;;;;0.30;0.30;;;1.10;99.90;;;;;;5087561;28;20910;-74
2023/01/03 07:02:33;;;;;;;0.30;0.30;;;1.00;99.90;;;;;;5085561;28;20430;-74
2023/01/03 07:05:00;;;;;;;0.10;0.10;;;1.00;99.90;;;;;;5078176;28;20493;-74
2023/01/03 07:07:27;;;;;;;0.17;0.17;;;1.00;99.90;;;;;;5087100;28;20517;-74
2023/01/03 07:09:53;;;;;;;0.30;0.30;;;1.00;99.90;;;;;;5089929;28;20467;-74
2023/01/03 07:15:06;;;;;;;0.30;0.30;;;0.90;99.90;;;;;;5087136;28;20475;-75
2023/01/03 07:17:32;;;;;;;0.45;0.45;;;1.00;99.90;;;;;;5081398;28;20429;-75
2023/01/03 07:20:02;;;;;;;0.30;0.30;;;1.10;99.90;;;;;;5086282;28;20430;-75
2023/01/03 07:22:29;;;;;;;1.77;0.57;;;1.00;99.90;;;;;;5090806;28;20434;-75
2023/01/03 07:24:56;;;;;;;0.32;0.32;;;1.00;99.90;;;;;;5088968;28;20515;-75
2023/01/03 07:27:23;;;;;;;0.20;0.20;;;1.00;99.90;;;;;;5082803;28;20933;-75
2023/01/03 07:29:49;;;;;;;0.47;0.47;;;1.00;99.90;;;;;;5076090;28;20940;-75
2023/01/03 07:32:16;;;;;;;1.77;0.47;;;1.00;99.90;;;;;;5077990;28;21114;-75
2023/01/03 07:34:43;;;;;;;2.60;0.30;;;0.90;99.90;;;;;;5069977;28;20496;-75
2023/01/03 07:37:09;;;;;;;1.23;0.47;;;0.90;99.90;;;;;;5087516;28;20434;-75
2023/01/03 07:39:36;;;;;;;0.20;0.20;;;1.00;99.90;;;;;;5079741;28;20432;-75
2023/01/03 07:44:48;;;;;;;0.50;0.50;;;1.40;99.90;;;;;;5072023;28;20525;-75
2023/01/03 07:47:17;;;;;;;1.50;0.57;;;1.40;99.90;;;;;;5082526;28;20456;-75
2023/01/03 07:49:44;;;;;;;1.10;0.50;;;1.40;99.90;;;;;;5070443;28;20424;-75
2023/01/03 07:52:11;;;;;;;0.70;0.70;;;1.40;99.90;;;;;;5084014;28;20515;-75
2023/01/03 07:54:38;;;;;;;0.40;0.40;;;1.40;99.90;;;;;;5077806;28;20462;-75
2023/01/03 07:57:04;;;;;;;0.80;0.80;;;1.50;99.90;;;;;;5083719;28;20425;-76
2023/01/03 07:59:31;;;;;;;1.30;0.80;;;1.60;99.90;;;;;;5080531;28;20554;-75
2023/01/03 08:01:58;;;;;;;0.80;0.40;;;1.60;99.90;;;;;;5074260;28;20432;-75
2023/01/03 08:04:25;;;;;;;0.50;0.50;;;1.50;99.90;;;;;;5080190;28;20426;-75
2023/01/03 08:06:52;;;;;;;1.08;0.57;;;1.40;99.90;;;;;;5079809;28;20438;-75
2023/01/03 08:14:57;;;;;;;1.45;0.77;;;1.50;99.90;;;;;;5085944;28;20431;-75
2023/01/03 08:17:24;;;;;;;0.55;0.55;;;1.70;99.90;;;;;;5087195;28;20955;-75
2023/01/03 08:19:50;;;;;;;0.30;0.30;;;1.70;99.90;;;;;;5083312;28;20511;-76
2023/01/03 08:22:17;;;;;;;0.50;0.50;;;1.90;99.90;;;;;;5084463;28;20430;-76
2023/01/03 08:24:44;;;;;;;0.60;0.60;;;2.00;99.90;;;;;;5082702;28;20430;-80
2023/01/03 08:27:11;;;;;;;0.98;0.55;;;2.00;99.90;;;;;;5086710;28;20511;-76
2023/01/03 08:29:38;;;;;;;0.32;0.32;;;2.10;99.90;;;;;;5089444;28;20426;-77
2023/01/03 08:32:07;;;;;;;0.40;0.40;;;2.20;99.90;;;;;;5089728;28;20443;-76
2023/01/03 08:34:37;;;;;;;0.20;0.20;;;2.40;99.90;;;;;;5082866;28;20507;-76
2023/01/03 08:37:10;;;;;;;0.20;0.20;;;2.50;99.90;;;;;;5079205;28;20441;-76
2023/01/03 08:39:44;;;;;;;0.82;0.82;;;2.60;99.90;;;;;;5079525;28;20435;-76
2023/01/03 08:42:19;;;;;;;0.27;0.27;;;2.90;99.90;;;;;;5079512;28;20431;-76
2023/01/03 08:44:48;;;;;;;0.30;0.30;;;3.20;99.90;;;;;;5083023;28;20877;-76
2023/01/03 08:47:16;;;;;;;2.40;0.45;;;3.50;99.90;;;;;;5080989;28;20459;-76
2023/01/03 08:49:43;;;;;;;0.15;0.15;;;3.80;99.90;;;;;;5086429;28;20432;-73
2023/01/03 08:52:12;;;;;;;0.50;0.50;;;4.10;99.90;;;;;;5086933;28;20421;-73
2023/01/03 08:54:39;;;;;;;0.45;0.45;;;4.40;99.90;;;;;;5079675;28;20426;-73
2023/01/03 08:57:06;;;;;;;0.40;0.40;;;4.50;99.90;;;;;;5081232;28;20517;-73
2023/01/03 08:59:34;;;;;;;1.83;0.57;;;4.70;99.90;;;;;;5093651;28;20416;-73
2023/01/03 09:02:01;;;;;;;0.47;0.43;;;4.90;99.90;;;;;;5089090;28;20441;-74
2023/01/03 09:04:31;;;;;;;0.30;0.30;;;5.20;99.90;;;;;;5074170;28;20461;-74
2023/01/03 09:07:00;;;;;;;2.00;0.67;;;5.40;99.90;;;;;;5078624;28;20422;-74
2023/01/03 09:09:27;;;;;;;0.57;0.57;;;5.50;99.90;;;;;;5078938;28;20505;-74
2023/01/03 09:11:54;;;;;;;0.35;0.35;;;5.20;99.90;;;;;;5080002;28;20452;-74
2023/01/03 09:14:21;;;;;;;0.30;0.30;;;5.30;99.90;;;;;;5085490;28;20451;-74
2023/01/03 09:16:48;;;;;;;0.30;0.30;;;5.20;99.90;;;;;;5093381;28;20477;-75
2023/01/03 09:19:15;;;;;;;0.30;0.30;;;5.30;99.90;;;;;;5081513;28;20909;-74
2023/01/03 09:21:42;;;;;;;0.20;0.20;;;5.30;99.90;;;;;;5098581;28;20428;-75
2023/01/03 09:24:09;;;;;;;0.60;0.60;;;5.40;99.90;;;;;;5081816;28;21186;-74
2023/01/03 09:26:36;;;;;;;1.20;0.60;;;5.60;99.90;;;;;;5088119;28;20428;-74
2023/01/03 09:29:03;;;;;;;0.40;0.40;;;5.90;99.90;;;;;;5086269;28;20453;-74
2023/01/03 09:31:33;;;;;;;0.32;0.32;;;6.30;99.90;;;;;;5096855;28;20437;-74
2023/01/03 09:34:03;;;;;;;0.50;0.50;;;6.50;99.90;;;;;;5096598;28;20428;-74
2023/01/03 09:36:31;;;;;;;0.35;0.35;;;6.50;99.90;;;;;;5087522;28;20440;-74
2023/01/03 09:38:58;;;;;;;1.00;0.80;;;6.60;99.90;;;;;;5081291;28;20434;-74
2023/01/03 09:41:26;;;;;;;1.27;0.77;;;6.90;99.90;;;;;;5074520;28;20430;-74
2023/01/03 09:44:05;;;;;;;0.70;0.70;;;7.20;99.90;;;;;;5082682;28;20440;-74
2023/01/03 09:46:34;;;;;;;0.60;0.57;;;7.60;99.90;;;;;;5085466;28;20902;-74
2023/01/03 09:49:02;;;;;;;0.80;0.80;;;7.80;99.90;;;;;;5090736;28;20426;-74
2023/01/03 10:03:42;;;;;;;1.00;0.95;;;7.90;99.90;;;;;;5089885;28;20461;-74
2023/01/03 10:06:22;;;;;;;2.63;1.20;;;8.20;99.90;;;;;;5087374;28;20445;-74
2023/01/03 10:09:07;;;;;;;0.70;0.70;;;8.30;99.90;;;;;;5074903;28;21062;-74
2023/01/03 10:12:17;;;;;;;0.40;0.40;;;8.30;99.90;;;;;;5084858;28;20916;-73
2023/01/03 10:15:15;;;;;;;0.90;0.55;;;8.40;99.90;;;;;;5059113;28;20423;-73
2023/01/03 10:17:56;;;;;;;0.70;0.70;;;8.50;93.40;;;;;;5064766;28;20954;-73
2023/01/03 10:20:49;;;;;;;1.70;1.27;;;8.90;99.90;;;;;;5064208;28;20431;-73
2023/01/03 10:23:18;;;;;;;0.80;0.80;;;9.30;99.50;;;;;;5063513;28;20434;-74
2023/01/03 10:25:46;;;;;;;0.85;0.85;;;9.70;93.10;;;;;;5062952;28;20420;-73
2023/01/03 10:28:35;;;;;;;1.20;1.10;;;9.90;51.60;;;;;;5066245;28;20448;-73
2023/01/03 10:31:40;;;;;;;0.45;0.45;;;9.80;1.00;;;;;;5062625;28;20515;-73
2023/01/03 10:34:10;;;;;;;1.30;0.60;;;9.60;17.40;;;;;;5008646;28;20569;-73
2023/01/03 10:36:37;;;;;;;1.00;1.00;;;9.70;99.90;;;;;;5044494;28;20418;-74
2023/01/03 10:39:09;;;;;;;0.60;0.60;;;9.50;99.90;;;;;;5055697;28;20424;-74
2023/01/03 10:41:45;;;;;;;0.80;0.77;;;9.40;96.10;;;;;;5056928;28;20485;-73
2023/01/03 10:44:29;;;;;;;0.43;0.43;;;9.10;71.70;;;;;;5061288;28;20473;-73
2023/01/03 10:46:59;;;;;;;0.63;0.50;;;9.00;99.90;;;;;;5062204;28;20431;-74
2023/01/03 10:49:30;;;;;;;0.50;0.50;;;9.10;99.90;;;;;;5077828;28;20439;-74
2023/01/03 10:52:18;;;;;;;0.40;0.40;;;9.10;99.90;;;;;;5078584;28;20947;-74
2023/01/03 10:54:55;;;;;;;0.63;0.57;;;9.20;99.90;;;;;;5075067;28;20934;-74
2023/01/03 10:57:44;;;;;;;0.50;0.50;;;9.30;99.90;;;;;;5090697;28;20777;-74
2023/01/03 11:00:20;;;;;;;1.48;0.95;;;9.50;99.90;;;;;;5084322;28;21149;-74
2023/01/03 11:02:48;;;;;;;0.53;0.53;;;9.50;99.90;;;;;;5084505;28;20940;-74
2023/01/03 11:05:21;;;;;;;0.33;0.33;;;9.50;99.90;;;;;;5083983;28;20831;-75
2023/01/03 11:08:00;;;;;;;0.50;0.50;;;9.40;99.90;;;;;;5085049;28;20472;-74
2023/01/03 11:10:47;;;;;;;0.30;0.30;;;9.30;99.90;;;;;;5090215;28;20845;-74
2023/01/03 11:13:32;;;;;;;0.30;0.30;;;9.00;99.90;;;;;;5100855;28;20459;-74
2023/01/03 11:16:02;;;;;;;0.30;0.30;;;9.00;99.90;;;;;;5079752;28;20924;-74
2023/01/03 11:18:30;;;;;;;1.38;0.40;;;8.90;99.90;;;;;;5078762;28;20440;-74
2023/01/03 11:21:14;;;;;;;0.40;0.40;;;9.00;99.90;;;;;;5074707;28;20427;-74
2023/01/03 11:23:47;;;;;;;0.60;0.60;;;9.20;99.90;;;;;;5078564;28;20429;-74
2023/01/03 11:26:26;;;;;;;0.55;0.52;;;9.40;99.90;;;;;;5083971;28;20466;-74
2023/01/03 11:28:56;;;;;;;0.67;0.67;;;9.40;99.90;;;;;;5078932;28;20928;-74
2023/01/03 11:32:07;;;;;;;0.30;0.30;;;9.40;99.90;;;;;;5081748;28;20516;-74
2023/01/03 11:34:45;;;;;;;0.30;0.30;;;9.40;99.90;;;;;;5075968;28;21551;-74
2023/01/03 11:38:04;;;;;;;0.40;0.40;;;9.30;99.90;;;;;;5089248;28;20420;-74
2023/01/03 11:40:35;;;;;;;0.52;0.52;;;9.40;99.90;;;;;;5081659;28;20421;-74
2023/01/03 11:43:15;;;;;;;1.40;0.82;;;9.20;99.90;;;;;;5075612;28;20418;-76
2023/01/03 11:46:05;;;;;;;0.45;0.45;;;9.20;99.90;;;;;;5086398;28;20427;-75
2023/01/03 11:48:54;;;;;;;0.40;0.40;;;9.00;99.90;;;;;;5088859;28;20424;-76
2023/01/03 11:51:57;;;;;;;0.50;0.50;;;8.90;99.90;;;;;;5080713;28;20471;-74
2023/01/03 11:55:03;;;;;;;0.50;0.50;;;8.90;99.90;;;;;;5088484;28;20766;-75
2023/01/03 11:57:55;;;;;;;0.13;0.13;;;8.80;99.90;;;;;;5088682;28;20964;-74
2023/01/03 12:00:22;;;;;;;0.40;0.40;;;8.70;99.90;;;;;;5087356;28;20510;-77
2023/01/03 12:03:08;;;;;;;0.30;0.30;;;8.60;99.90;;;;;;5077434;28;21032;-75
2023/01/03 12:05:45;;;;;;;0.70;0.57;;;8.50;99.90;;;;;;5088878;28;20437;-75
2023/01/03 12:08:43;;;;;;;0.30;0.30;;;8.50;99.90;;;;;;5085021;28;20916;-75
2023/01/03 12:11:42;;;;;;;0.50;0.20;;;8.50;99.90;;;;;;5082695;28;20434;-75
2023/01/03 12:14:28;;;;;;;0.52;0.45;;;8.60;99.90;;;;;;5092302;28;20797;-75
2023/01/03 12:17:03;;;;;;;0.30;0.30;;;8.70;99.90;;;;;;5080724;28;20934;-75
2023/01/03 12:19:42;;;;;;;0.10;0.10;;;8.70;99.90;;;;;;5071694;28;20428;-74
2023/01/03 12:22:17;;;;;;;0.30;0.30;;;8.70;99.90;;;;;;5082447;28;20429;-75
2023/01/03 12:24:51;;;;;;;0.50;0.50;;;8.70;99.90;;;;;;5082855;28;20453;-75
2023/01/03 12:27:42;;;;;;;0.32;0.32;;;8.80;99.90;;;;;;5084207;28;20442;-75
2023/01/03 12:30:38;;;;;;;0.40;0.40;;;8.80;99.90;;;;;;5075863;28;20529;-75
2023/01/03 12:33:30;;;;;;;0.50;0.50;;;8.90;99.90;;;;;;5083180;28;20432;-74
2023/01/03 12:36:22;;;;;;;0.57;0.57;;;8.80;99.90;;;;;;5088285;28;21025;-74
2023/01/03 12:39:06;;;;;;;0.30;0.30;;;8.80;99.90;;;;;;5070113;28;20453;-75
2023/01/03 12:41:41;;;;;;;1.00;0.30;;;8.90;99.90;;;;;;5081293;28;20450;-75
2023/01/03 12:44:38;;;;;;;0.35;0.25;;;8.90;99.90;;;;;;5073476;28;20499;-75
2023/01/03 12:47:27;;;;;;;0.20;0.20;;;9.00;99.90;;;;;;5077301;28;20438;-75
2023/01/03 12:50:02;;;;;;;0.60;0.43;;;9.00;99.90;;;;;;5069702;28;20453;-75
2023/01/03 12:52:32;;;;;;;0.47;0.47;;;9.00;99.90;;;;;;5069368;28;20517;-74
2023/01/03 12:55:07;;;;;;;0.30;0.30;;;9.00;99.90;;;;;;5074081;28;20928;-75
2023/01/03 12:57:51;;;;;;;0.43;0.40;;;9.00;99.90;;;;;;5070148;28;20427;-74
2023/01/03 13:00:40;;;;;;;0.10;0.10;;;9.00;99.90;;;;;;5083859;28;20580;-75
2023/01/03 13:03:37;;;;;;;0.20;0.20;;;9.10;99.90;;;;;;5070115;28;20458;-75
2023/01/03 13:06:22;;;;;;;0.50;0.50;;;9.00;99.90;;;;;;5075408;28;20435;-75
2023/01/03 13:09:00;;;;;;;0.70;0.50;;;9.00;99.90;;;;;;5100520;28;20503;-75
2023/01/03 13:11:30;;;;;;;0.35;0.35;;;9.00;99.90;;;;;;5082675;28;20798;-75
2023/01/03 13:14:03;;;;;;;0.40;0.40;;;9.00;99.90;;;;;;5078175;28;20418;-74
2023/01/03 13:16:33;;;;;;;0.20;0.20;;;9.00;99.90;;;;;;5082433;28;20444;-75
2023/01/03 13:19:19;;;;;;;0.30;0.30;;;9.00;99.90;;;;;;5078404;28;20416;-75
2023/01/03 13:21:51;;;;;;;0.10;0.10;;;9.00;99.90;;;;;;5075872;28;20978;-75
2023/01/03 13:24:48;;;;;;;1.00;0.30;;;8.90;99.90;;;;;;5079883;28;20443;-75
2023/01/03 13:27:21;;;;;;;0.28;0.20;;;8.90;99.90;;;;;;5079223;28;20672;-75
2023/01/03 13:29:48;;;;;;;0.37;0.30;;;8.80;99.90;;;;;;5077394;28;20509;-75
2023/01/03 13:32:21;;;;;;;0.17;0.17;;;8.80;99.90;;;;;;5082358;28;22090;-75
2023/01/03 13:34:56;;;;;;;0.50;0.50;;;8.70;99.90;;;;;;5077018;28;20932;-75
2023/01/03 13:37:28;;;;;;;0.28;0.28;;;8.70;99.90;;;;;;5079473;28;20515;-75
2023/01/03 13:40:01;;;;;;;0.50;0.50;;;8.70;99.90;;;;;;5077302;28;20521;-76
2023/01/03 13:42:35;;;;;;;0.30;0.30;;;8.70;99.90;;;;;;5084247;28;20539;-76
2023/01/03 13:45:26;;;;;;;2.50;0.80;;;8.70;99.90;;;;;;5074071;28;20894;-75
2023/01/03 13:47:54;;;;;;;1.30;0.30;;;8.70;99.90;;;;;;5077002;28;20937;-75
2023/01/03 13:50:35;;;;;;;0.10;0.10;;;8.70;99.90;;;;;;5077503;28;21014;-74
2023/01/03 13:53:03;;;;;;;0.50;0.50;;;8.70;99.90;;;;;;5086495;28;20435;-72
2023/01/03 13:55:48;;;;;;;0.40;0.40;;;8.60;99.90;;;;;;5081506;28;20432;-73
2023/01/03 13:58:23;;;;;;;0.60;0.50;;;8.50;99.90;;;;;;5090047;28;20423;-72
2023/01/03 14:00:58;;;;;;;0.33;0.33;;;8.50;99.90;;;;;;5077519;28;20906;-70
2023/01/03 14:03:50;;;;;;;0.30;0.30;;;8.50;99.90;;;;;;5059365;28;20525;-74
2023/01/03 14:06:43;;;;;;;0.70;0.60;;;8.50;99.90;;;;;;5081407;28;20431;-74
2023/01/03 14:09:22;;;;;;;0.30;0.30;;;8.50;99.90;;;;;;5078006;28;20449;-74
2023/01/03 14:11:52;;;;;;;1.02;0.60;;;8.50;99.90;;;;;;5071546;28;21145;-74
2023/01/03 14:14:22;;;;;;;0.60;0.60;;;8.60;99.90;;;;;;5072800;28;20419;-75
2023/01/03 14:16:55;;;;;;;0.10;0.10;;;8.60;99.90;;;;;;5087655;28;20417;-74
2023/01/03 14:19:29;;;;;;;0.47;0.47;;;8.80;99.90;;;;;;5086351;28;20430;-73
2023/01/03 14:22:09;;;;;;;0.28;0.28;;;8.90;99.90;;;;;;5097279;28;20513;-74
2023/01/03 14:24:56;;;;;;;0.52;0.52;;;8.90;99.90;;;;;;5097402;28;20424;-75
2023/01/03 14:27:28;;;;;;;0.30;0.30;;;9.00;99.90;;;;;;5089732;28;20505;-75
2023/01/03 14:29:55;;;;;;;0.93;0.50;;;9.00;99.90;;;;;;5075674;28;20962;-75
2023/01/03 14:32:25;;;;;;;0.50;0.50;;;9.00;99.90;;;;;;5086301;28;20424;-75
2023/01/03 14:35:00;;;;;;;0.50;0.35;;;9.00;99.90;;;;;;5082984;28;20463;-76
2023/01/03 14:37:27;;;;;;;0.35;0.35;;;9.00;99.90;;;;;;5067936;28;20418;-76
2023/01/03 14:39:55;;;;;;;0.38;0.38;;;8.90;99.90;;;;;;5077851;28;21075;-75